Time,TemperatureF,DewpointF,PressureIn,WindDirection,WindDirectionDegrees,WindSpeedMPH,WindSpeedGustMPH,Humidity,HourlyPrecipIn,Conditions,Clouds,dailyrainin,SoftwareType,DateUTC
2013-02-20 00:04:00,15.1,10.6,29.84,South,180,5.8,-999.0,82,-99.99,,,0.00,Acu-Link.com,2013-02-20 05:04:00,
2013-02-20 00:19:00,14.9,11.5,29.84,South,180,9.4,-999.0,86,-99.99,,,0.00,Acu-Link.com,2013-02-20 05:19:00,
2013-02-20 00:35:00,14.5,11.9,29.84,SW,225,4.2,-999.0,89,-99.99,,,0.00,Acu-Link.com,2013-02-20 05:35:00,
2013-02-20 00:50:00,14.4,12.0,29.86,SW,225,13.5,-999.0,90,-99.99,,,0.00,Acu-Link.com,2013-02-20 05:50:00,
2013-02-20 01:05:00,14.0,10.6,29.85,South,180,4.7,-999.0,86,-99.99,,,0.00,Acu-Link.com,2013-02-20 06:05:00,
2013-02-20 01:20:00,14.0,10.6,29.86,SW,225,5.3,-999.0,86,-99.99,,,0.00,Acu-Link.com,2013-02-20 06:20:00,
2013-02-20 01:35:00,14.0,10.9,29.86,SW,225,4.7,-999.0,87,-99.99,,,0.00,Acu-Link.com,2013-02-20 06:35:00,
2013-02-20 01:51:00,13.8,11.4,29.86,WNW,292,4.7,-999.0,90,-99.99,,,0.00,Acu-Link.com,2013-02-20 06:51:00,
2013-02-20 02:06:00,13.8,11.4,29.87,SSW,202,7.8,-999.0,90,-99.99,,,0.00,Acu-Link.com,2013-02-20 07:06:00,
2013-02-20 02:21:00,13.8,11.2,29.86,West,270,5.8,-999.0,89,-99.99,,,0.00,Acu-Link.com,2013-02-20 07:21:00,
2013-02-20 02:36:00,14.0,10.6,29.86,South,180,5.3,-999.0,86,-99.99,,,0.00,Acu-Link.com,2013-02-20 07:36:00,
2013-02-20 02:52:00,14.4,10.5,29.87,SSE,157,4.7,-999.0,84,-99.99,,,0.00,Acu-Link.com,2013-02-20 07:52:00,
2013-02-20 03:07:00,14.5,10.6,29.86,SSW,202,13.0,-999.0,84,-99.99,,,0.00,Acu-Link.com,2013-02-20 08:07:00,
2013-02-20 03:22:00,14.7,10.8,29.87,West,270,2.7,-999.0,84,-99.99,,,0.00,Acu-Link.com,2013-02-20 08:22:00,
2013-02-20 03:37:00,14.7,10.8,29.86,SSE,157,3.2,-999.0,84,-99.99,,,0.00,Acu-Link.com,2013-02-20 08:37:00,
2013-02-20 03:52:00,14.9,11.2,29.87,SSW,202,9.4,-999.0,85,-99.99,,,0.00,Acu-Link.com,2013-02-20 08:52:00,
2013-02-20 04:18:00,14.9,11.2,29.87,South,180,6.3,-999.0,85,-99.99,,,0.00,Acu-Link.com,2013-02-20 09:18:00,
2013-02-20 04:33:00,15.1,11.4,29.87,South,180,8.9,-999.0,85,-99.99,,,0.00,Acu-Link.com,2013-02-20 09:33:00,
2013-02-20 04:48:00,15.1,11.7,29.88,South,180,6.3,-999.0,86,-99.99,,,0.00,Acu-Link.com,2013-02-20 09:48:00,
2013-02-20 05:03:00,15.1,11.2,29.89,SE,135,5.3,-999.0,84,-99.99,,,0.00,Acu-Link.com,2013-02-20 10:03:00,
2013-02-20 05:18:00,15.1,10.9,29.89,SW,225,7.8,-999.0,83,-99.99,,,0.00,Acu-Link.com,2013-02-20 10:18:00,
2013-02-20 05:33:00,15.3,11.1,29.89,SSW,202,2.7,-999.0,83,-99.99,,,0.00,Acu-Link.com,2013-02-20 10:33:00,
2013-02-20 05:48:00,15.3,11.1,29.91,SSW,202,3.7,-999.0,83,-99.99,,,0.00,Acu-Link.com,2013-02-20 10:48:00,
2013-02-20 06:04:00,15.4,10.9,29.90,South,180,16.6,-999.0,82,-99.99,,,0.00,Acu-Link.com,2013-02-20 11:04:00,
2013-02-20 06:19:00,15.4,11.2,29.91,South,180,7.3,-999.0,83,-99.99,,,0.00,Acu-Link.com,2013-02-20 11:19:00,
2013-02-20 06:34:00,15.4,11.4,29.91,South,180,7.3,-999.0,84,-99.99,,,0.00,Acu-Link.com,2013-02-20 11:34:00,
2013-02-20 06:49:00,15.4,11.4,29.91,South,180,6.8,-999.0,84,-99.99,,,0.00,Acu-Link.com,2013-02-20 11:49:00,
2013-02-20 07:04:00,15.4,11.7,29.91,SSE,157,4.2,-999.0,85,-99.99,,,0.00,Acu-Link.com,2013-02-20 12:04:00,
2013-02-20 07:20:00,15.4,12.0,29.91,SSE,157,6.3,-999.0,86,-99.99,,,0.00,Acu-Link.com,2013-02-20 12:20:00,
2013-02-20 07:35:00,15.4,12.0,29.93,South,180,11.9,-999.0,86,-99.99,,,0.00,Acu-Link.com,2013-02-20 12:35:00,
2013-02-20 07:50:00,15.4,12.0,29.93,South,180,4.7,-999.0,86,-99.99,,,0.00,Acu-Link.com,2013-02-20 12:50:00,
2013-02-20 08:05:00,15.4,12.7,29.93,South,180,4.7,-999.0,89,-99.99,,,0.00,Acu-Link.com,2013-02-20 13:05:00,
2013-02-20 08:20:00,15.6,12.9,29.93,SW,225,5.3,-999.0,89,-99.99,,,0.00,Acu-Link.com,2013-02-20 13:20:00,
2013-02-20 08:36:00,16.3,13.1,29.94,South,180,7.8,-999.0,87,-99.99,,,0.00,Acu-Link.com,2013-02-20 13:36:00,
2013-02-20 08:51:00,16.3,13.4,29.94,SSE,157,4.7,-999.0,88,-99.99,,,0.00,Acu-Link.com,2013-02-20 13:51:00,
2013-02-20 09:06:00,16.5,14.1,29.94,SSE,157,8.9,-999.0,90,-99.99,,,0.00,Acu-Link.com,2013-02-20 14:06:00,
2013-02-20 09:21:00,16.3,14.6,29.95,SW,225,5.8,-999.0,93,-99.99,,,0.00,Acu-Link.com,2013-02-20 14:21:00,
2013-02-20 09:37:00,16.7,14.3,29.97,SSE,157,7.3,-999.0,90,-99.99,,,0.00,Acu-Link.com,2013-02-20 14:37:00,
2013-02-20 09:52:00,18.5,15.6,29.96,SSE,157,5.3,-999.0,88,-99.99,,,0.00,Acu-Link.com,2013-02-20 14:52:00,
2013-02-20 10:07:00,17.6,14.9,29.97,SSE,157,6.8,-999.0,89,-99.99,,,0.00,Acu-Link.com,2013-02-20 15:07:00,
2013-02-20 10:22:00,17.8,13.8,29.97,South,180,9.9,-999.0,84,-99.99,,,0.00,Acu-Link.com,2013-02-20 15:22:00,
2013-02-20 10:37:00,18.7,13.9,29.97,SE,135,4.7,-999.0,81,-99.99,,,0.00,Acu-Link.com,2013-02-20 15:37:00,
2013-02-20 10:53:00,17.6,13.3,29.99,South,180,8.3,-999.0,83,-99.99,,,0.00,Acu-Link.com,2013-02-20 15:53:00,
2013-02-20 11:08:00,18.1,13.3,29.98,WNW,292,6.3,-999.0,81,-99.99,,,0.00,Acu-Link.com,2013-02-20 16:08:00,
2013-02-20 11:23:00,18.7,13.0,29.99,SW,225,10.4,-999.0,78,-99.99,,,0.00,Acu-Link.com,2013-02-20 16:23:00,
2013-02-20 11:38:00,18.7,11.8,29.99,SSE,157,4.2,-999.0,74,-99.99,,,0.00,Acu-Link.com,2013-02-20 16:38:00,
2013-02-20 11:53:00,19.9,11.7,30.00,West,270,2.7,-999.0,70,-99.99,,,0.00,Acu-Link.com,2013-02-20 16:53:00,
2013-02-20 12:09:00,19.8,13.2,30.00,SSE,157,4.7,-999.0,75,-99.99,,,0.00,Acu-Link.com,2013-02-20 17:09:00,
2013-02-20 12:24:00,20.3,12.1,30.01,SE,135,4.2,-999.0,70,-99.99,,,0.00,Acu-Link.com,2013-02-20 17:24:00,
2013-02-20 12:39:00,20.8,11.3,30.00,SW,225,5.3,-999.0,66,-99.99,,,0.00,Acu-Link.com,2013-02-20 17:39:00,
2013-02-20 12:54:00,20.3,10.1,30.00,SSW,202,3.7,-999.0,64,-99.99,,,0.00,Acu-Link.com,2013-02-20 17:54:00,
2013-02-20 13:09:00,20.7,12.5,30.00,SSE,157,5.3,-999.0,70,-99.99,,,0.00,Acu-Link.com,2013-02-20 18:09:00,
2013-02-20 13:25:00,20.5,12.0,30.00,South,180,7.3,-999.0,69,-99.99,,,0.00,Acu-Link.com,2013-02-20 18:25:00,
2013-02-20 13:40:00,20.3,12.1,30.00,SSE,157,3.7,-999.0,70,-99.99,,,0.00,Acu-Link.com,2013-02-20 18:40:00,
2013-02-20 13:55:00,21.2,12.3,30.00,SSE,157,9.9,-999.0,68,-99.99,,,0.00,Acu-Link.com,2013-02-20 18:55:00,
2013-02-20 14:10:00,20.8,11.6,30.00,SW,225,6.3,-999.0,67,-99.99,,,0.00,Acu-Link.com,2013-02-20 19:10:00,
2013-02-20 14:26:00,20.7,9.8,30.01,SSE,157,5.8,-999.0,62,-99.99,,,0.00,Acu-Link.com,2013-02-20 19:26:00,
2013-02-20 14:41:00,21.7,11.4,30.02,SSE,157,1.7,-999.0,64,-99.99,,,0.00,Acu-Link.com,2013-02-20 19:41:00,
2013-02-20 14:56:00,20.8,11.9,30.02,SSE,157,3.7,-999.0,68,-99.99,,,0.00,Acu-Link.com,2013-02-20 19:56:00,
2013-02-20 15:11:00,20.8,10.2,30.03,SSW,202,4.2,-999.0,63,-99.99,,,0.00,Acu-Link.com,2013-02-20 20:11:00,
2013-02-20 15:26:00,20.1,10.3,30.03,SSE,157,5.8,-999.0,65,-99.99,,,0.00,Acu-Link.com,2013-02-20 20:26:00,
2013-02-20 15:42:00,20.3,10.8,30.04,SSW,202,3.7,-999.0,66,-99.99,,,0.00,Acu-Link.com,2013-02-20 20:42:00,
2013-02-20 15:57:00,20.3,10.1,30.05,South,180,11.4,-999.0,64,-99.99,,,0.00,Acu-Link.com,2013-02-20 20:57:00,
2013-02-20 16:12:00,19.6,9.8,30.06,SSE,157,9.4,-999.0,65,-99.99,,,0.00,Acu-Link.com,2013-02-20 21:12:00,
2013-02-20 16:28:00,19.9,10.1,30.06,SSE,157,4.2,-999.0,65,-99.99,,,0.00,Acu-Link.com,2013-02-20 21:28:00,
2013-02-20 16:43:00,19.8,10.3,30.07,SSE,157,6.8,-999.0,66,-99.99,,,0.00,Acu-Link.com,2013-02-20 21:43:00,
2013-02-20 16:58:00,19.4,9.9,30.07,SSE,157,3.7,-999.0,66,-99.99,,,0.00,Acu-Link.com,2013-02-20 21:58:00,
2013-02-20 17:13:00,19.2,10.4,30.07,South,180,4.2,-999.0,68,-99.99,,,0.00,Acu-Link.com,2013-02-20 22:13:00,
2013-02-20 17:28:00,19.0,10.9,30.08,SSE,157,4.2,-999.0,70,-99.99,,,0.00,Acu-Link.com,2013-02-20 22:28:00,
2013-02-20 17:44:00,18.9,11.1,30.08,South,180,4.2,-999.0,71,-99.99,,,0.00,Acu-Link.com,2013-02-20 22:44:00,
2013-02-20 17:59:00,18.7,10.6,30.09,SSE,157,8.9,-999.0,70,-99.99,,,0.00,Acu-Link.com,2013-02-20 22:59:00,
2013-02-20 18:14:00,18.7,10.9,30.07,SSE,157,6.3,-999.0,71,-99.99,,,0.00,Acu-Link.com,2013-02-20 23:14:00,
2013-02-20 18:29:00,18.7,11.5,30.08,South,180,4.2,-999.0,73,-99.99,,,0.00,Acu-Link.com,2013-02-20 23:29:00,
2013-02-20 18:44:00,18.7,11.8,30.08,SSE,157,3.2,-999.0,74,-99.99,,,0.00,Acu-Link.com,2013-02-20 23:44:00,
2013-02-20 19:00:00,18.5,12.2,30.07,SSE,157,6.3,-999.0,76,-99.99,,,0.00,Acu-Link.com,2013-02-21 00:00:00,
2013-02-20 19:15:00,18.5,12.2,30.07,SSE,157,4.7,-999.0,76,-99.99,,,0.00,Acu-Link.com,2013-02-21 00:15:00,
2013-02-20 19:30:00,18.5,12.5,30.08,SSE,157,4.2,-999.0,77,-99.99,,,0.00,Acu-Link.com,2013-02-21 00:30:00,
2013-02-20 19:45:00,18.5,12.8,30.09,South,180,3.7,-999.0,78,-99.99,,,0.00,Acu-Link.com,2013-02-21 00:45:00,
2013-02-20 20:01:00,18.3,13.2,30.09,South,180,5.3,-999.0,80,-99.99,,,0.00,Acu-Link.com,2013-02-21 01:01:00,
2013-02-20 20:16:00,18.3,14.0,30.08,South,180,4.2,-999.0,83,-99.99,,,0.00,Acu-Link.com,2013-02-21 01:16:00,
2013-02-20 20:31:00,18.1,14.4,30.10,SSE,157,2.7,-999.0,85,-99.99,,,0.00,Acu-Link.com,2013-02-21 01:31:00,
2013-02-20 20:46:00,18.0,14.8,30.09,SSE,157,2.2,-999.0,87,-99.99,,,0.00,Acu-Link.com,2013-02-21 01:46:00,
2013-02-20 21:01:00,18.0,14.8,30.08,South,180,2.2,-999.0,87,-99.99,,,0.00,Acu-Link.com,2013-02-21 02:01:00,
2013-02-20 21:17:00,17.8,15.1,30.10,SSE,157,2.2,-999.0,89,-99.99,,,0.00,Acu-Link.com,2013-02-21 02:17:00,
2013-02-20 21:32:00,17.8,15.4,30.10,South,180,2.7,-999.0,90,-99.99,,,0.00,Acu-Link.com,2013-02-21 02:32:00,
2013-02-20 21:47:00,17.8,15.6,30.10,South,180,3.2,-999.0,91,-99.99,,,0.00,Acu-Link.com,2013-02-21 02:47:00,
2013-02-20 22:02:00,17.8,15.9,30.09,South,180,4.2,-999.0,92,-99.99,,,0.00,Acu-Link.com,2013-02-21 03:02:00,
2013-02-20 22:17:00,17.8,15.9,30.09,SSE,157,2.2,-999.0,92,-99.99,,,0.00,Acu-Link.com,2013-02-21 03:17:00,
2013-02-20 22:33:00,17.6,15.9,30.09,South,180,4.2,-999.0,93,-99.99,,,0.00,Acu-Link.com,2013-02-21 03:33:00,
2013-02-20 22:48:00,17.6,15.9,30.10,South,180,2.7,-999.0,93,-99.99,,,0.00,Acu-Link.com,2013-02-21 03:48:00,
2013-02-20 23:18:00,17.6,16.2,30.09,South,180,3.2,-999.0,94,-99.99,,,0.00,Acu-Link.com,2013-02-21 04:18:00,
2013-02-20 23:34:00,17.4,16.0,30.09,South,180,2.2,-999.0,94,-99.99,,,0.00,Acu-Link.com,2013-02-21 04:34:00,
2013-02-20 23:49:00,17.4,16.0,30.09,SSW,202,2.7,-999.0,94,-99.99,,,0.00,Acu-Link.com,2013-02-21 04:49:00,